sensor_id;sensor_type;location;lat;lon;timestamp;P1;durP1;ratioP1;P2;durP2;ratioP2
33563;SDS011;19894;48.452;11.494;2022-12-13T00:01:09;1.00;;;0.90;;
33563;SDS011;19894;48.452;11.494;2022-12-13T00:03:35;0.50;;;0.50;;
33563;SDS011;19894;48.452;11.494;2022-12-13T00:06:03;1.00;;;0.80;;
33563;SDS011;19894;48.452;11.494;2022-12-13T00:08:30;0.70;;;0.60;;
33563;SDS011;19894;48.452;11.494;2022-12-13T00:11:03;1.00;;;0.90;;
33563;SDS011;19894;48.452;11.494;2022-12-13T00:13:30;0.68;;;0.60;;
33563;SDS011;19894;48.452;11.494;2022-12-13T00:15:57;0.52;;;0.50;;
33563;SDS011;19894;48.452;11.494;2022-12-13T00:18:26;0.73;;;0.45;;
33563;SDS011;19894;48.452;11.494;2022-12-13T00:20:52;0.88;;;0.60;;
33563;SDS011;19894;48.452;11.494;2022-12-13T00:23:18;0.60;;;0.50;;
33563;SDS011;19894;48.452;11.494;2022-12-13T00:25:45;0.80;;;0.57;;
33563;SDS011;19894;48.452;11.494;2022-12-13T00:28:11;0.50;;;0.50;;
33563;SDS011;19894;48.452;11.494;2022-12-13T00:30:37;0.95;;;0.80;;
33563;SDS011;19894;48.452;11.494;2022-12-13T00:33:04;0.75;;;0.52;;
33563;SDS011;19894;48.452;11.494;2022-12-13T00:35:30;0.50;;;0.50;;
33563;SDS011;19894;48.452;11.494;2022-12-13T00:37:56;0.80;;;0.57;;
33563;SDS011;19894;48.452;11.494;2022-12-13T00:40:22;1.08;;;0.98;;
33563;SDS011;19894;48.452;11.494;2022-12-13T00:42:49;0.50;;;0.50;;
33563;SDS011;19894;48.452;11.494;2022-12-13T00:45:14;0.80;;;0.60;;
33563;SDS011;19894;48.452;11.494;2022-12-13T00:47:40;0.40;;;0.40;;
33563;SDS011;19894;48.452;11.494;2022-12-13T00:50:06;0.90;;;0.63;;
33563;SDS011;19894;48.452;11.494;2022-12-13T00:52:35;0.73;;;0.60;;
33563;SDS011;19894;48.452;11.494;2022-12-13T00:55:00;0.77;;;0.57;;
33563;SDS011;19894;48.452;11.494;2022-12-13T00:57:26;0.82;;;0.50;;
33563;SDS011;19894;48.452;11.494;2022-12-13T00:59:52;0.77;;;0.50;;
33563;SDS011;19894;48.452;11.494;2022-12-13T01:02:17;0.90;;;0.70;;
33563;SDS011;19894;48.452;11.494;2022-12-13T01:04:43;1.10;;;0.82;;
33563;SDS011;19894;48.452;11.494;2022-12-13T01:07:09;0.70;;;0.40;;
33563;SDS011;19894;48.452;11.494;2022-12-13T01:09:34;0.98;;;0.70;;
33563;SDS011;19894;48.452;11.494;2022-12-13T01:12:01;0.52;;;0.52;;
33563;SDS011;19894;48.452;11.494;2022-12-13T01:14:29;0.80;;;0.80;;
33563;SDS011;19894;48.452;11.494;2022-12-13T01:16:55;0.73;;;0.70;;
33563;SDS011;19894;48.452;11.494;2022-12-13T01:19:22;0.60;;;0.50;;
33563;SDS011;19894;48.452;11.494;2022-12-13T01:21:48;0.65;;;0.40;;
33563;SDS011;19894;48.452;11.494;2022-12-13T01:24:18;0.68;;;0.68;;
33563;SDS011;19894;48.452;11.494;2022-12-13T01:26:45;0.30;;;0.30;;
33563;SDS011;19894;48.452;11.494;2022-12-13T01:29:11;0.75;;;0.55;;
33563;SDS011;19894;48.452;11.494;2022-12-13T01:31:37;0.43;;;0.40;;
33563;SDS011;19894;48.452;11.494;2022-12-13T01:34:05;0.80;;;0.80;;
33563;SDS011;19894;48.452;11.494;2022-12-13T01:36:39;0.65;;;0.55;;
33563;SDS011;19894;48.452;11.494;2022-12-13T01:39:07;0.98;;;0.75;;
33563;SDS011;19894;48.452;11.494;2022-12-13T01:41:34;0.63;;;0.50;;
33563;SDS011;19894;48.452;11.494;2022-12-13T01:44:51;0.80;;;0.63;;
33563;SDS011;19894;48.452;11.494;2022-12-13T01:47:07;0.68;;;0.60;;
33563;SDS011;19894;48.452;11.494;2022-12-13T01:49:32;0.52;;;0.50;;
33563;SDS011;19894;48.452;11.494;2022-12-13T01:51:59;0.57;;;0.50;;
33563;SDS011;19894;48.452;11.494;2022-12-13T01:54:30;1.20;;;1.10;;
33563;SDS011;19894;48.452;11.494;2022-12-13T01:57:00;0.77;;;0.45;;
33563;SDS011;19894;48.452;11.494;2022-12-13T01:59:31;0.47;;;0.40;;
33563;SDS011;19894;48.452;11.494;2022-12-13T02:01:59;0.52;;;0.50;;
33563;SDS011;19894;48.452;11.494;2022-12-13T02:04:27;0.50;;;0.50;;
33563;SDS011;19894;48.452;11.494;2022-12-13T02:09:21;0.50;;;0.50;;
33563;SDS011;19894;48.452;11.494;2022-12-13T02:11:47;0.88;;;0.70;;
33563;SDS011;19894;48.452;11.494;2022-12-13T02:14:15;0.43;;;0.40;;
33563;SDS011;19894;48.452;11.494;2022-12-13T02:30:42;0.50;;;0.50;;
33563;SDS011;19894;48.452;11.494;2022-12-13T02:36:20;0.57;;;0.40;;
33563;SDS011;19894;48.452;11.494;2022-12-13T02:39:02;1.10;;;0.55;;
33563;SDS011;19894;48.452;11.494;2022-12-13T02:41:48;1.00;;;0.68;;
33563;SDS011;19894;48.452;11.494;2022-12-13T02:44:17;0.50;;;0.50;;
33563;SDS011;19894;48.452;11.494;2022-12-13T02:47:00;0.52;;;0.40;;
33563;SDS011;19894;48.452;11.494;2022-12-13T02:49:34;0.82;;;0.52;;
33563;SDS011;19894;48.452;11.494;2022-12-13T02:52:03;0.40;;;0.40;;
33563;SDS011;19894;48.452;11.494;2022-12-13T02:54:33;0.90;;;0.80;;
33563;SDS011;19894;48.452;11.494;2022-12-13T02:57:00;0.45;;;0.40;;
33563;SDS011;19894;48.452;11.494;2022-12-13T02:59:27;0.40;;;0.40;;
33563;SDS011;19894;48.452;11.494;2022-12-13T03:02:14;0.30;;;0.30;;
33563;SDS011;19894;48.452;11.494;2022-12-13T03:08:20;0.80;;;0.60;;
33563;SDS011;19894;48.452;11.494;2022-12-13T03:13:33;0.65;;;0.50;;
33563;SDS011;19894;48.452;11.494;2022-12-13T03:19:01;0.65;;;0.65;;
33563;SDS011;19894;48.452;11.494;2022-12-13T03:21:29;0.68;;;0.65;;
33563;SDS011;19894;48.452;11.494;2022-12-13T03:24:06;0.90;;;0.65;;
33563;SDS011;19894;48.452;11.494;2022-12-13T03:26:32;0.43;;;0.40;;
33563;SDS011;19894;48.452;11.494;2022-12-13T03:28:58;0.75;;;0.50;;
33563;SDS011;19894;48.452;11.494;2022-12-13T03:31:23;0.60;;;0.38;;
33563;SDS011;19894;48.452;11.494;2022-12-13T03:33:49;0.57;;;0.50;;
33563;SDS011;19894;48.452;11.494;2022-12-13T03:36:15;1.08;;;0.43;;
33563;SDS011;19894;48.452;11.494;2022-12-13T03:38:42;0.40;;;0.40;;
33563;SDS011;19894;48.452;11.494;2022-12-13T03:41:10;0.50;;;0.50;;
33563;SDS011;19894;48.452;11.494;2022-12-13T03:43:38;0.30;;;0.30;;
33563;SDS011;19894;48.452;11.494;2022-12-13T03:46:04;0.85;;;0.75;;
33563;SDS011;19894;48.452;11.494;2022-12-13T03:48:31;0.30;;;0.30;;
33563;SDS011;19894;48.452;11.494;2022-12-13T03:50:56;0.38;;;0.30;;
33563;SDS011;19894;48.452;11.494;2022-12-13T03:53:22;0.57;;;0.43;;
33563;SDS011;19894;48.452;11.494;2022-12-13T03:55:49;0.63;;;0.45;;
33563;SDS011;19894;48.452;11.494;2022-12-13T03:58:14;0.68;;;0.52;;
33563;SDS011;19894;48.452;11.494;2022-12-13T04:00:40;0.40;;;0.32;;
33563;SDS011;19894;48.452;11.494;2022-12-13T04:03:06;0.40;;;0.30;;
33563;SDS011;19894;48.452;11.494;2022-12-13T04:05:31;0.40;;;0.40;;
33563;SDS011;19894;48.452;11.494;2022-12-13T04:07:57;0.30;;;0.20;;
33563;SDS011;19894;48.452;11.494;2022-12-13T04:10:23;0.30;;;0.30;;
33563;SDS011;19894;48.452;11.494;2022-12-13T04:12:49;0.50;;;0.40;;
33563;SDS011;19894;48.452;11.494;2022-12-13T04:15:33;0.28;;;0.28;;
33563;SDS011;19894;48.452;11.494;2022-12-13T04:17:58;0.40;;;0.40;;
33563;SDS011;19894;48.452;11.494;2022-12-13T04:20:24;0.50;;;0.50;;
33563;SDS011;19894;48.452;11.494;2022-12-13T04:22:50;0.30;;;0.30;;
33563;SDS011;19894;48.452;11.494;2022-12-13T04:25:16;0.50;;;0.40;;
33563;SDS011;19894;48.452;11.494;2022-12-13T04:27:41;0.50;;;0.30;;
33563;SDS011;19894;48.452;11.494;2022-12-13T04:30:07;0.40;;;0.40;;
33563;SDS011;19894;48.452;11.494;2022-12-13T04:32:33;0.35;;;0.30;;
33563;SDS011;19894;48.452;11.494;2022-12-13T04:34:58;0.55;;;0.52;;
33563;SDS011;19894;48.452;11.494;2022-12-13T04:37:24;0.50;;;0.40;;
33563;SDS011;19894;48.452;11.494;2022-12-13T04:39:50;0.30;;;0.30;;
33563;SDS011;19894;48.452;11.494;2022-12-13T04:42:15;0.60;;;0.30;;
33563;SDS011;19894;48.452;11.494;2022-12-13T04:44:41;0.43;;;0.40;;
33563;SDS011;19894;48.452;11.494;2022-12-13T04:47:06;0.63;;;0.50;;
33563;SDS011;19894;48.452;11.494;2022-12-13T04:49:32;0.35;;;0.32;;
33563;SDS011;19894;48.452;11.494;2022-12-13T04:51:58;0.32;;;0.30;;
33563;SDS011;19894;48.452;11.494;2022-12-13T04:54:24;0.60;;;0.60;;
33563;SDS011;19894;48.452;11.494;2022-12-13T04:56:50;0.40;;;0.40;;
33563;SDS011;19894;48.452;11.494;2022-12-13T04:59:16;0.45;;;0.40;;
33563;SDS011;19894;48.452;11.494;2022-12-13T05:01:41;0.88;;;0.70;;
33563;SDS011;19894;48.452;11.494;2022-12-13T05:04:07;0.55;;;0.55;;
33563;SDS011;19894;48.452;11.494;2022-12-13T05:06:32;0.28;;;0.22;;
33563;SDS011;19894;48.452;11.494;2022-12-13T05:08:58;0.40;;;0.40;;
33563;SDS011;19894;48.452;11.494;2022-12-13T05:11:24;0.55;;;0.40;;
33563;SDS011;19894;48.452;11.494;2022-12-13T05:13:50;0.30;;;0.30;;
33563;SDS011;19894;48.452;11.494;2022-12-13T05:16:16;0.20;;;0.20;;
33563;SDS011;19894;48.452;11.494;2022-12-13T05:18:41;0.50;;;0.50;;
33563;SDS011;19894;48.452;11.494;2022-12-13T05:21:08;0.30;;;0.30;;
33563;SDS011;19894;48.452;11.494;2022-12-13T05:23:35;0.55;;;0.30;;
33563;SDS011;19894;48.452;11.494;2022-12-13T05:26:01;0.90;;;0.40;;
33563;SDS011;19894;48.452;11.494;2022-12-13T05:28:28;0.52;;;0.40;;
33563;SDS011;19894;48.452;11.494;2022-12-13T05:30:55;0.50;;;0.40;;
33563;SDS011;19894;48.452;11.494;2022-12-13T05:33:23;0.63;;;0.40;;
33563;SDS011;19894;48.452;11.494;2022-12-13T05:35:49;0.50;;;0.40;;
33563;SDS011;19894;48.452;11.494;2022-12-13T05:38:15;0.50;;;0.40;;
33563;SDS011;19894;48.452;11.494;2022-12-13T05:40:43;0.40;;;0.40;;
33563;SDS011;19894;48.452;11.494;2022-12-13T05:43:11;0.50;;;0.50;;
33563;SDS011;19894;48.452;11.494;2022-12-13T05:45:38;0.30;;;0.30;;
33563;SDS011;19894;48.452;11.494;2022-12-13T05:48:03;0.70;;;0.65;;
33563;SDS011;19894;48.452;11.494;2022-12-13T05:50:29;0.50;;;0.50;;
33563;SDS011;19894;48.452;11.494;2022-12-13T05:52:55;0.40;;;0.30;;
33563;SDS011;19894;48.452;11.494;2022-12-13T05:55:20;0.32;;;0.30;;
33563;SDS011;19894;48.452;11.494;2022-12-13T05:57:46;0.55;;;0.40;;
33563;SDS011;19894;48.452;11.494;2022-12-13T06:00:12;0.40;;;0.32;;
33563;SDS011;19894;48.452;11.494;2022-12-13T06:02:38;0.40;;;0.40;;
33563;SDS011;19894;48.452;11.494;2022-12-13T06:05:05;0.28;;;0.25;;
33563;SDS011;19894;48.452;11.494;2022-12-13T06:07:31;0.38;;;0.35;;
33563;SDS011;19894;48.452;11.494;2022-12-13T06:09:57;0.32;;;0.32;;
33563;SDS011;19894;48.452;11.494;2022-12-13T06:12:23;0.80;;;0.32;;
33563;SDS011;19894;48.452;11.494;2022-12-13T06:14:48;0.20;;;0.20;;
33563;SDS011;19894;48.452;11.494;2022-12-13T06:17:14;0.25;;;0.25;;
33563;SDS011;19894;48.452;11.494;2022-12-13T06:19:40;0.50;;;0.40;;
33563;SDS011;19894;48.452;11.494;2022-12-13T06:22:05;0.60;;;0.30;;
33563;SDS011;19894;48.452;11.494;2022-12-13T06:24:31;1.23;;;0.57;;
33563;SDS011;19894;48.452;11.494;2022-12-13T06:26:57;0.32;;;0.30;;
33563;SDS011;19894;48.452;11.494;2022-12-13T06:29:24;0.10;;;0.10;;
33563;SDS011;19894;48.452;11.494;2022-12-13T06:31:56;0.52;;;0.35;;
33563;SDS011;19894;48.452;11.494;2022-12-13T06:34:23;0.60;;;0.40;;
33563;SDS011;19894;48.452;11.494;2022-12-13T06:36:49;0.57;;;0.40;;
33563;SDS011;19894;48.452;11.494;2022-12-13T06:39:15;0.20;;;0.20;;
33563;SDS011;19894;48.452;11.494;2022-12-13T06:41:41;0.30;;;0.30;;
33563;SDS011;19894;48.452;11.494;2022-12-13T06:44:06;0.80;;;0.40;;
33563;SDS011;19894;48.452;11.494;2022-12-13T06:46:32;0.40;;;0.40;;
33563;SDS011;19894;48.452;11.494;2022-12-13T06:48:58;0.32;;;0.30;;
33563;SDS011;19894;48.452;11.494;2022-12-13T06:51:24;0.45;;;0.30;;
33563;SDS011;19894;48.452;11.494;2022-12-13T06:53:49;0.47;;;0.22;;
33563;SDS011;19894;48.452;11.494;2022-12-13T06:56:15;0.40;;;0.40;;
33563;SDS011;19894;48.452;11.494;2022-12-13T06:58:41;0.40;;;0.28;;
33563;SDS011;19894;48.452;11.494;2022-12-13T07:03:32;0.30;;;0.28;;
33563;SDS011;19894;48.452;11.494;2022-12-13T07:05:59;0.73;;;0.50;;
33563;SDS011;19894;48.452;11.494;2022-12-13T07:08:28;0.68;;;0.50;;
33563;SDS011;19894;48.452;11.494;2022-12-13T07:10:55;0.50;;;0.50;;
33563;SDS011;19894;48.452;11.494;2022-12-13T07:13:21;0.30;;;0.30;;
33563;SDS011;19894;48.452;11.494;2022-12-13T07:15:47;0.30;;;0.30;;
33563;SDS011;19894;48.452;11.494;2022-12-13T07:18:13;0.20;;;0.20;;
33563;SDS011;19894;48.452;11.494;2022-12-13T07:20:39;0.40;;;0.30;;
33563;SDS011;19894;48.452;11.494;2022-12-13T07:23:05;0.30;;;0.30;;
33563;SDS011;19894;48.452;11.494;2022-12-13T07:25:31;0.50;;;0.30;;
33563;SDS011;19894;48.452;11.494;2022-12-13T07:27:57;0.52;;;0.30;;
33563;SDS011;19894;48.452;11.494;2022-12-13T07:30:24;0.20;;;0.20;;
33563;SDS011;19894;48.452;11.494;2022-12-13T07:32:50;0.55;;;0.30;;
33563;SDS011;19894;48.452;11.494;2022-12-13T07:35:16;0.38;;;0.38;;
33563;SDS011;19894;48.452;11.494;2022-12-13T07:37:41;0.60;;;0.50;;
33563;SDS011;19894;48.452;11.494;2022-12-13T07:40:07;0.80;;;0.47;;
33563;SDS011;19894;48.452;11.494;2022-12-13T07:42:34;0.32;;;0.25;;
33563;SDS011;19894;48.452;11.494;2022-12-13T07:45:00;0.43;;;0.38;;
33563;SDS011;19894;48.452;11.494;2022-12-13T07:47:29;0.52;;;0.30;;
33563;SDS011;19894;48.452;11.494;2022-12-13T07:49:56;0.55;;;0.55;;
33563;SDS011;19894;48.452;11.494;2022-12-13T07:52:22;0.70;;;0.68;;
33563;SDS011;19894;48.452;11.494;2022-12-13T07:54:47;0.52;;;0.32;;
33563;SDS011;19894;48.452;11.494;2022-12-13T07:57:13;0.40;;;0.40;;
33563;SDS011;19894;48.452;11.494;2022-12-13T07:59:38;0.40;;;0.30;;
33563;SDS011;19894;48.452;11.494;2022-12-13T08:02:05;0.55;;;0.38;;
33563;SDS011;19894;48.452;11.494;2022-12-13T08:04:33;0.82;;;0.52;;
33563;SDS011;19894;48.452;11.494;2022-12-13T08:06:59;0.30;;;0.22;;
33563;SDS011;19894;48.452;11.494;2022-12-13T08:09:24;0.52;;;0.40;;
33563;SDS011;19894;48.452;11.494;2022-12-13T08:11:52;0.85;;;0.60;;
33563;SDS011;19894;48.452;11.494;2022-12-13T08:14:18;0.88;;;0.50;;
33563;SDS011;19894;48.452;11.494;2022-12-13T08:16:43;0.52;;;0.40;;
33563;SDS011;19894;48.452;11.494;2022-12-13T08:19:09;0.43;;;0.38;;
33563;SDS011;19894;48.452;11.494;2022-12-13T08:21:35;0.40;;;0.38;;
33563;SDS011;19894;48.452;11.494;2022-12-13T08:24:04;0.70;;;0.40;;
33563;SDS011;19894;48.452;11.494;2022-12-13T08:26:30;0.75;;;0.65;;
33563;SDS011;19894;48.452;11.494;2022-12-13T08:28:56;0.45;;;0.30;;
33563;SDS011;19894;48.452;11.494;2022-12-13T08:31:21;0.30;;;0.30;;
33563;SDS011;19894;48.452;11.494;2022-12-13T08:33:47;0.80;;;0.75;;
33563;SDS011;19894;48.452;11.494;2022-12-13T08:36:14;0.40;;;0.40;;
33563;SDS011;19894;48.452;11.494;2022-12-13T08:38:41;0.35;;;0.30;;
33563;SDS011;19894;48.452;11.494;2022-12-13T08:41:07;0.47;;;0.47;;
33563;SDS011;19894;48.452;11.494;2022-12-13T08:43:33;0.73;;;0.60;;
33563;SDS011;19894;48.452;11.494;2022-12-13T08:45:59;0.40;;;0.40;;
33563;SDS011;19894;48.452;11.494;2022-12-13T08:48:25;0.80;;;0.40;;
33563;SDS011;19894;48.452;11.494;2022-12-13T08:50:51;0.57;;;0.40;;
33563;SDS011;19894;48.452;11.494;2022-12-13T08:53:17;0.63;;;0.45;;
33563;SDS011;19894;48.452;11.494;2022-12-13T08:55:42;0.88;;;0.60;;
33563;SDS011;19894;48.452;11.494;2022-12-13T08:58:08;0.25;;;0.25;;
33563;SDS011;19894;48.452;11.494;2022-12-13T09:00:34;0.50;;;0.40;;
33563;SDS011;19894;48.452;11.494;2022-12-13T09:03:01;0.30;;;0.30;;
33563;SDS011;19894;48.452;11.494;2022-12-13T09:05:27;0.52;;;0.50;;
33563;SDS011;19894;48.452;11.494;2022-12-13T09:07:56;0.60;;;0.40;;
33563;SDS011;19894;48.452;11.494;2022-12-13T09:10:22;0.50;;;0.40;;
33563;SDS011;19894;48.452;11.494;2022-12-13T09:12:48;0.43;;;0.43;;
33563;SDS011;19894;48.452;11.494;2022-12-13T09:15:14;0.68;;;0.52;;
33563;SDS011;19894;48.452;11.494;2022-12-13T09:17:40;0.50;;;0.50;;
33563;SDS011;19894;48.452;11.494;2022-12-13T09:20:07;0.40;;;0.30;;
33563;SDS011;19894;48.452;11.494;2022-12-13T09:22:35;0.30;;;0.30;;
33563;SDS011;19894;48.452;11.494;2022-12-13T09:25:02;0.73;;;0.60;;
33563;SDS011;19894;48.452;11.494;2022-12-13T09:27:29;0.43;;;0.38;;
33563;SDS011;19894;48.452;11.494;2022-12-13T09:29:55;0.43;;;0.40;;
33563;SDS011;19894;48.452;11.494;2022-12-13T09:32:21;0.68;;;0.32;;
33563;SDS011;19894;48.452;11.494;2022-12-13T09:34:47;0.43;;;0.40;;
33563;SDS011;19894;48.452;11.494;2022-12-13T09:37:13;0.40;;;0.32;;
33563;SDS011;19894;48.452;11.494;2022-12-13T09:39:39;0.40;;;0.30;;
33563;SDS011;19894;48.452;11.494;2022-12-13T09:42:04;0.65;;;0.40;;
33563;SDS011;19894;48.452;11.494;2022-12-13T09:44:35;0.55;;;0.55;;
33563;SDS011;19894;48.452;11.494;2022-12-13T09:47:06;0.50;;;0.38;;
33563;SDS011;19894;48.452;11.494;2022-12-13T09:49:42;0.50;;;0.32;;
33563;SDS011;19894;48.452;11.494;2022-12-13T09:52:13;0.22;;;0.22;;
33563;SDS011;19894;48.452;11.494;2022-12-13T09:54:42;0.25;;;0.22;;
33563;SDS011;19894;48.452;11.494;2022-12-13T09:57:08;0.30;;;0.30;;
33563;SDS011;19894;48.452;11.494;2022-12-13T09:59:43;0.40;;;0.40;;
33563;SDS011;19894;48.452;11.494;2022-12-13T10:02:30;0.20;;;0.20;;
33563;SDS011;19894;48.452;11.494;2022-12-13T10:07:51;0.30;;;0.22;;
33563;SDS011;19894;48.452;11.494;2022-12-13T10:10:19;0.20;;;0.20;;
33563;SDS011;19894;48.452;11.494;2022-12-13T10:12:46;0.35;;;0.35;;
33563;SDS011;19894;48.452;11.494;2022-12-13T10:15:17;0.30;;;0.20;;
33563;SDS011;19894;48.452;11.494;2022-12-13T10:17:44;0.30;;;0.30;;
33563;SDS011;19894;48.452;11.494;2022-12-13T10:20:20;0.30;;;0.20;;
33563;SDS011;19894;48.452;11.494;2022-12-13T10:22:46;0.30;;;0.30;;
33563;SDS011;19894;48.452;11.494;2022-12-13T10:25:12;0.25;;;0.25;;
33563;SDS011;19894;48.452;11.494;2022-12-13T10:27:39;0.57;;;0.30;;
33563;SDS011;19894;48.452;11.494;2022-12-13T10:30:16;0.32;;;0.30;;
33563;SDS011;19894;48.452;11.494;2022-12-13T10:32:53;0.82;;;0.60;;
33563;SDS011;19894;48.452;11.494;2022-12-13T10:35:28;0.30;;;0.20;;
33563;SDS011;19894;48.452;11.494;2022-12-13T10:37:58;0.35;;;0.35;;
33563;SDS011;19894;48.452;11.494;2022-12-13T10:40:32;0.10;;;0.10;;
33563;SDS011;19894;48.452;11.494;2022-12-13T10:45:40;0.10;;;0.10;;
33563;SDS011;19894;48.452;11.494;2022-12-13T10:48:52;0.28;;;0.28;;
33563;SDS011;19894;48.452;11.494;2022-12-13T10:51:01;0.30;;;0.30;;
33563;SDS011;19894;48.452;11.494;2022-12-13T10:53:33;0.20;;;0.20;;
33563;SDS011;19894;48.452;11.494;2022-12-13T10:56:03;0.10;;;0.10;;
33563;SDS011;19894;48.452;11.494;2022-12-13T10:58:34;0.20;;;0.20;;
33563;SDS011;19894;48.452;11.494;2022-12-13T11:03:42;0.25;;;0.10;;
33563;SDS011;19894;48.452;11.494;2022-12-13T11:06:40;0.82;;;0.30;;
33563;SDS011;19894;48.452;11.494;2022-12-13T11:11:57;0.10;;;0.10;;
33563;SDS011;19894;48.452;11.494;2022-12-13T11:14:37;0.10;;;0.10;;
33563;SDS011;19894;48.452;11.494;2022-12-13T11:17:16;0.20;;;0.20;;
33563;SDS011;19894;48.452;11.494;2022-12-13T11:19:53;0.20;;;0.20;;
33563;SDS011;19894;48.452;11.494;2022-12-13T11:22:33;0.22;;;0.20;;
33563;SDS011;19894;48.452;11.494;2022-12-13T11:25:06;0.20;;;0.20;;
33563;SDS011;19894;48.452;11.494;2022-12-13T11:31:04;0.20;;;0.10;;
33563;SDS011;19894;48.452;11.494;2022-12-13T11:33:45;0.25;;;0.20;;
33563;SDS011;19894;48.452;11.494;2022-12-13T11:36:34;0.28;;;0.25;;
33563;SDS011;19894;48.452;11.494;2022-12-13T11:45:05;0.20;;;0.20;;
33563;SDS011;19894;48.452;11.494;2022-12-13T11:47:42;0.25;;;0.22;;
33563;SDS011;19894;48.452;11.494;2022-12-13T11:50:16;0.30;;;0.30;;
33563;SDS011;19894;48.452;11.494;2022-12-13T11:52:51;0.10;;;0.10;;
33563;SDS011;19894;48.452;11.494;2022-12-13T11:55:36;0.45;;;0.28;;
33563;SDS011;19894;48.452;11.494;2022-12-13T12:01:03;0.10;;;0.10;;
33563;SDS011;19894;48.452;11.494;2022-12-13T12:03:38;0.17;;;0.17;;
33563;SDS011;19894;48.452;11.494;2022-12-13T12:11:52;0.10;;;0.10;;
33563;SDS011;19894;48.452;11.494;2022-12-13T12:16:57;0.20;;;0.20;;
33563;SDS011;19894;48.452;11.494;2022-12-13T12:19:29;0.30;;;0.30;;
33563;SDS011;19894;48.452;11.494;2022-12-13T12:22:19;0.40;;;0.30;;
33563;SDS011;19894;48.452;11.494;2022-12-13T12:41:48;0.40;;;0.20;;
33563;SDS011;19894;48.452;11.494;2022-12-13T12:55:58;0.28;;;0.10;;
33563;SDS011;19894;48.452;11.494;2022-12-13T13:04:17;0.25;;;0.20;;
33563;SDS011;19894;48.452;11.494;2022-12-13T13:07:09;0.10;;;0.10;;
33563;SDS011;19894;48.452;11.494;2022-12-13T13:09:39;0.30;;;0.30;;
33563;SDS011;19894;48.452;11.494;2022-12-13T13:12:06;0.17;;;0.10;;
33563;SDS011;19894;48.452;11.494;2022-12-13T13:14:38;0.10;;;0.10;;
33563;SDS011;19894;48.452;11.494;2022-12-13T13:19:48;0.15;;;0.10;;
33563;SDS011;19894;48.452;11.494;2022-12-13T13:22:35;0.10;;;0.10;;
33563;SDS011;19894;48.452;11.494;2022-12-13T13:27:39;0.30;;;0.30;;
33563;SDS011;19894;48.452;11.494;2022-12-13T13:30:27;0.20;;;0.10;;
33563;SDS011;19894;48.452;11.494;2022-12-13T13:32:53;0.10;;;0.10;;
33563;SDS011;19894;48.452;11.494;2022-12-13T13:38:00;0.22;;;0.20;;
33563;SDS011;19894;48.452;11.494;2022-12-13T13:43:02;0.30;;;0.10;;
33563;SDS011;19894;48.452;11.494;2022-12-13T14:10:31;0.10;;;0.10;;
33563;SDS011;19894;48.452;11.494;2022-12-13T14:13:10;0.20;;;0.20;;
33563;SDS011;19894;48.452;11.494;2022-12-13T14:30:11;0.25;;;0.10;;
33563;SDS011;19894;48.452;11.494;2022-12-13T14:32:39;0.35;;;0.20;;
33563;SDS011;19894;48.452;11.494;2022-12-13T14:35:19;0.10;;;0.10;;
33563;SDS011;19894;48.452;11.494;2022-12-13T14:37:54;0.10;;;0.10;;
33563;SDS011;19894;48.452;11.494;2022-12-13T14:42:52;0.10;;;0.10;;
33563;SDS011;19894;48.452;11.494;2022-12-13T14:45:31;0.08;;;0.08;;
33563;SDS011;19894;48.452;11.494;2022-12-13T14:48:02;0.20;;;0.20;;
33563;SDS011;19894;48.452;11.494;2022-12-13T14:50:32;0.10;;;0.10;;
33563;SDS011;19894;48.452;11.494;2022-12-13T14:52:59;0.10;;;0.10;;
33563;SDS011;19894;48.452;11.494;2022-12-13T14:55:34;0.20;;;0.20;;
33563;SDS011;19894;48.452;11.494;2022-12-13T14:58:02;0.32;;;0.10;;
33563;SDS011;19894;48.452;11.494;2022-12-13T15:00:48;0.35;;;0.10;;
33563;SDS011;19894;48.452;11.494;2022-12-13T15:03:21;0.00;;;0.00;;
33563;SDS011;19894;48.452;11.494;2022-12-13T15:05:50;0.10;;;0.10;;
33563;SDS011;19894;48.452;11.494;2022-12-13T15:08:18;0.00;;;0.00;;
33563;SDS011;19894;48.452;11.494;2022-12-13T15:10:45;0.20;;;0.10;;
33563;SDS011;19894;48.452;11.494;2022-12-13T15:15:54;0.15;;;0.10;;
33563;SDS011;19894;48.452;11.494;2022-12-13T15:18:25;0.10;;;0.10;;
33563;SDS011;19894;48.452;11.494;2022-12-13T15:20:53;0.10;;;0.10;;
33563;SDS011;19894;48.452;11.494;2022-12-13T15:23:34;0.20;;;0.10;;
33563;SDS011;19894;48.452;11.494;2022-12-13T15:28:40;0.08;;;0.08;;
33563;SDS011;19894;48.452;11.494;2022-12-13T15:31:07;0.00;;;0.00;;
33563;SDS011;19894;48.452;11.494;2022-12-13T15:33:34;0.20;;;0.10;;
33563;SDS011;19894;48.452;11.494;2022-12-13T15:39:04;0.28;;;0.20;;
33563;SDS011;19894;48.452;11.494;2022-12-13T15:41:33;0.10;;;0.10;;
33563;SDS011;19894;48.452;11.494;2022-12-13T15:44:02;0.30;;;0.20;;
33563;SDS011;19894;48.452;11.494;2022-12-13T15:46:38;0.20;;;0.00;;
33563;SDS011;19894;48.452;11.494;2022-12-13T15:49:05;0.10;;;0.10;;
33563;SDS011;19894;48.452;11.494;2022-12-13T15:51:54;0.10;;;0.10;;
33563;SDS011;19894;48.452;11.494;2022-12-13T15:54:26;0.10;;;0.10;;
33563;SDS011;19894;48.452;11.494;2022-12-13T15:57:00;0.10;;;0.10;;
33563;SDS011;19894;48.452;11.494;2022-12-13T15:59:28;0.03;;;0.03;;
33563;SDS011;19894;48.452;11.494;2022-12-13T16:01:54;0.20;;;0.15;;
33563;SDS011;19894;48.452;11.494;2022-12-13T16:04:21;0.10;;;0.10;;
33563;SDS011;19894;48.452;11.494;2022-12-13T16:06:49;0.20;;;0.10;;
33563;SDS011;19894;48.452;11.494;2022-12-13T16:09:17;0.20;;;0.20;;
33563;SDS011;19894;48.452;11.494;2022-12-13T16:11:47;1.35;;;0.10;;
33563;SDS011;19894;48.452;11.494;2022-12-13T16:16:55;0.00;;;0.00;;
33563;SDS011;19894;48.452;11.494;2022-12-13T16:21:49;0.10;;;0.08;;
33563;SDS011;19894;48.452;11.494;2022-12-13T16:24:15;0.20;;;0.17;;
33563;SDS011;19894;48.452;11.494;2022-12-13T16:26:44;0.20;;;0.10;;
33563;SDS011;19894;48.452;11.494;2022-12-13T16:29:12;0.57;;;0.45;;
33563;SDS011;19894;48.452;11.494;2022-12-13T16:31:41;0.52;;;0.28;;
33563;SDS011;19894;48.452;11.494;2022-12-13T16:34:08;0.10;;;0.10;;
33563;SDS011;19894;48.452;11.494;2022-12-13T16:36:34;0.20;;;0.10;;
33563;SDS011;19894;48.452;11.494;2022-12-13T16:39:00;0.20;;;0.20;;
33563;SDS011;19894;48.452;11.494;2022-12-13T16:41:26;0.20;;;0.20;;
33563;SDS011;19894;48.452;11.494;2022-12-13T16:44:01;0.20;;;0.20;;
33563;SDS011;19894;48.452;11.494;2022-12-13T16:46:29;0.30;;;0.17;;
33563;SDS011;19894;48.452;11.494;2022-12-13T16:48:55;0.17;;;0.17;;
33563;SDS011;19894;48.452;11.494;2022-12-13T16:51:21;0.35;;;0.35;;
33563;SDS011;19894;48.452;11.494;2022-12-13T16:53:46;0.77;;;0.52;;
33563;SDS011;19894;48.452;11.494;2022-12-13T16:56:12;0.20;;;0.20;;
33563;SDS011;19894;48.452;11.494;2022-12-13T16:58:40;1.33;;;0.77;;
33563;SDS011;19894;48.452;11.494;2022-12-13T17:01:10;0.15;;;0.15;;
33563;SDS011;19894;48.452;11.494;2022-12-13T17:03:41;0.17;;;0.10;;
33563;SDS011;19894;48.452;11.494;2022-12-13T17:06:07;0.20;;;0.10;;
33563;SDS011;19894;48.452;11.494;2022-12-13T17:08:35;0.57;;;0.30;;
33563;SDS011;19894;48.452;11.494;2022-12-13T17:11:00;0.38;;;0.20;;
33563;SDS011;19894;48.452;11.494;2022-12-13T17:13:26;1.13;;;0.30;;
33563;SDS011;19894;48.452;11.494;2022-12-13T17:15:52;0.32;;;0.10;;
33563;SDS011;19894;48.452;11.494;2022-12-13T17:18:18;0.20;;;0.20;;
33563;SDS011;19894;48.452;11.494;2022-12-13T17:20:44;0.10;;;0.10;;
33563;SDS011;19894;48.452;11.494;2022-12-13T17:23:10;0.40;;;0.20;;
33563;SDS011;19894;48.452;11.494;2022-12-13T17:25:36;0.15;;;0.15;;